East Pitcairn, New York
Current Conditions -  °F | °C
As of 12:58 AM on Saturday 01 Nov 2014 (Local Time) from KGTB Reporting Station
Overcast Overcast  
Wind Chill: -2°   Ceiling: 8000
Heat Index:   Visibility: 10mi
Dew Point:   Wind: 13mph
Humidity: 83%   Direction: 40°NE
Pressure: 30.01"   Gusts: NA
Location:  44.1447°N, 75.2952°W
Report Text: KGTB 010458Z AUTO 04011KT 10SM FEW037 OVC080 02/00 A3001 RMK AO2 SLP168 T00231003 400781002
Loading
Personal Weather Stations






























Interactive Weather Map
Tropical Storm Tracking
New forecast layout! Learn more

10-Day Weather Forecast

Advertisements
Track Severe Weather on mobile